createdAt,value
2023-02-23T00:02:18.464Z,5.68
2023-02-23T00:04:46.059Z,5.68
2023-02-23T00:07:13.237Z,5.69
2023-02-23T00:09:40.517Z,5.71
2023-02-23T00:12:08.029Z,5.67
2023-02-23T00:14:37.605Z,5.67
2023-02-23T00:17:11.196Z,5.66
2023-02-23T00:19:38.398Z,5.66
2023-02-23T00:22:06.398Z,5.65
2023-02-23T00:24:37.748Z,5.66
2023-02-23T00:27:06.900Z,5.64
2023-02-23T00:29:39.397Z,5.62
2023-02-23T00:32:06.755Z,5.61
2023-02-23T00:34:35.731Z,5.65
2023-02-23T00:37:02.879Z,5.61
2023-02-23T00:39:30.030Z,5.59
2023-02-23T00:42:02.413Z,5.62
2023-02-23T00:44:29.880Z,5.65
2023-02-23T00:46:56.972Z,5.68
2023-02-23T00:49:24.159Z,5.67
2023-02-23T00:51:57.523Z,5.65
2023-02-23T00:54:24.820Z,5.64
2023-02-23T00:56:52.116Z,5.63
2023-02-23T00:59:19.810Z,5.61
2023-02-23T01:01:47.256Z,5.55
2023-02-23T01:04:14.717Z,5.59
2023-02-23T01:06:42.663Z,5.59
2023-02-23T01:09:13.521Z,5.59
2023-02-23T01:11:41.544Z,5.55
2023-02-23T01:14:10.128Z,5.52
2023-02-23T01:16:38.828Z,5.50
2023-02-23T01:19:06.115Z,5.48
2023-02-23T01:21:38.460Z,5.43
2023-02-23T01:24:06.221Z,5.44
2023-02-23T01:26:35.852Z,5.47
2023-02-23T01:29:10.671Z,5.51
2023-02-23T01:31:40.002Z,5.53
2023-02-23T01:34:07.793Z,5.52
2023-02-23T01:36:37.120Z,5.49
2023-02-23T01:39:18.912Z,5.49
2023-02-23T01:41:46.282Z,5.44
2023-02-23T01:44:13.399Z,5.40
2023-02-23T01:46:43.694Z,5.41
2023-02-23T01:49:15.524Z,5.42
2023-02-23T01:51:56.540Z,5.45
2023-02-23T01:54:29.130Z,5.43
2023-02-23T01:56:58.792Z,5.43
2023-02-23T01:59:34.032Z,5.41
2023-02-23T02:02:01.381Z,5.38
2023-02-23T02:04:29.030Z,5.36
2023-02-23T02:06:56.780Z,5.37
2023-02-23T02:09:28.302Z,5.39
2023-02-23T02:11:55.410Z,5.30
2023-02-23T02:14:27.459Z,5.26
2023-02-23T02:17:17.575Z,5.29
2023-02-23T02:20:31.457Z,5.24
2023-02-23T02:23:17.068Z,5.22
2023-02-23T02:26:05.494Z,5.21
2023-02-23T02:28:56.613Z,5.11
2023-02-23T02:31:42.627Z,5.04
2023-02-23T02:34:57.650Z,5.07
2023-02-23T02:37:33.106Z,5.08
2023-02-23T02:40:27.855Z,5.13
2023-02-23T02:42:59.289Z,5.14
2023-02-23T02:45:44.476Z,5.18
2023-02-23T02:48:41.813Z,5.18
2023-02-23T02:51:21.653Z,5.16
2023-02-23T02:54:10.970Z,5.15
2023-02-23T02:56:40.894Z,5.13
2023-02-23T02:59:39.121Z,5.12
2023-02-23T03:02:25.616Z,5.13
2023-02-23T03:05:11.136Z,5.14
2023-02-23T03:08:08.950Z,5.14
2023-02-23T03:11:05.278Z,5.14
2023-02-23T03:14:29.454Z,5.11
2023-02-23T03:17:21.403Z,5.08
2023-02-23T03:20:22.073Z,5.07
2023-02-23T03:23:15.505Z,5.06
2023-02-23T03:26:06.880Z,5.06
2023-02-23T03:28:56.610Z,5.04
2023-02-23T03:32:02.259Z,5.07
2023-02-23T03:34:55.215Z,5.04
2023-02-23T03:37:41.961Z,5.03
2023-02-23T03:40:39.406Z,5.01
2023-02-23T03:43:29.886Z,5.00
2023-02-23T03:46:16.055Z,4.98
2023-02-23T03:49:02.201Z,4.96
2023-02-23T03:51:50.870Z,4.98
2023-02-23T03:54:42.425Z,4.90
2023-02-23T03:57:29.093Z,4.89
2023-02-23T04:00:20.796Z,4.88
2023-02-23T04:03:08.536Z,4.87
2023-02-23T04:05:56.825Z,4.81
2023-02-23T04:08:47.932Z,4.81
2023-02-23T04:11:58.313Z,4.79
2023-02-23T04:14:36.713Z,4.68
2023-02-23T04:17:04.406Z,4.71
2023-02-23T04:19:31.523Z,4.74
2023-02-23T04:21:58.707Z,4.79
2023-02-23T04:24:25.837Z,4.74
2023-02-23T04:26:53.121Z,4.72
2023-02-23T04:29:20.264Z,4.72
2023-02-23T04:31:48.669Z,4.74
2023-02-23T04:34:22.662Z,4.77
2023-02-23T04:36:51.288Z,4.77
2023-02-23T04:39:18.518Z,4.76
2023-02-23T04:41:45.848Z,4.75
2023-02-23T04:44:13.240Z,4.69
2023-02-23T04:46:40.644Z,4.60
2023-02-23T04:49:07.845Z,4.61
2023-02-23T04:51:36.570Z,4.59
2023-02-23T04:54:04.824Z,4.55
2023-02-23T04:56:32.288Z,4.57
2023-02-23T04:59:00.256Z,4.46
2023-02-23T05:01:28.913Z,4.45
2023-02-23T05:03:56.101Z,4.48
2023-02-23T05:06:23.370Z,4.52
2023-02-23T05:08:50.492Z,4.54
2023-02-23T05:11:18.282Z,4.51
2023-02-23T05:13:45.556Z,4.50
2023-02-23T05:16:12.814Z,4.49
2023-02-23T05:18:39.969Z,4.47
2023-02-23T05:21:08.717Z,4.36
2023-02-23T05:23:36.415Z,4.35
2023-02-23T05:26:09.129Z,4.36
2023-02-23T05:28:37.223Z,4.37
2023-02-23T05:31:04.910Z,4.41
2023-02-23T05:33:32.848Z,4.42
2023-02-23T05:36:00.294Z,4.42
2023-02-23T05:38:27.761Z,4.41
2023-02-23T05:40:54.945Z,4.39
2023-02-23T05:43:22.163Z,4.36
2023-02-23T05:45:49.326Z,4.32
2023-02-23T05:48:16.451Z,4.32
2023-02-23T05:50:43.668Z,4.28
2023-02-23T05:53:11.205Z,4.28
2023-02-23T05:55:38.397Z,4.26
2023-02-23T05:58:05.482Z,4.25
2023-02-23T06:00:32.781Z,4.27
2023-02-23T06:02:59.953Z,4.26
2023-02-23T06:05:27.121Z,4.22
2023-02-23T06:07:54.402Z,4.20
2023-02-23T06:10:21.560Z,4.12
2023-02-23T06:12:48.840Z,4.09
2023-02-23T06:15:16.037Z,4.10
2023-02-23T06:17:43.159Z,4.09
2023-02-23T06:20:10.846Z,4.05
2023-02-23T06:22:38.058Z,4.04
2023-02-23T06:25:06.289Z,4.04
2023-02-23T06:27:33.406Z,4.01
2023-02-23T06:30:00.595Z,4.00
2023-02-23T06:32:27.744Z,3.99
2023-02-23T06:34:54.891Z,3.90
2023-02-23T06:37:22.024Z,3.90
2023-02-23T06:39:50.432Z,3.92
2023-02-23T06:42:17.676Z,3.97
2023-02-23T06:44:44.754Z,3.99
2023-02-23T06:47:11.881Z,4.02
2023-02-23T06:49:40.469Z,4.00
2023-02-23T06:52:08.619Z,4.01
2023-02-23T06:54:37.746Z,4.01
2023-02-23T06:57:04.886Z,4.03
2023-02-23T06:59:32.249Z,4.04
2023-02-23T07:01:59.576Z,4.03
2023-02-23T07:04:26.777Z,4.01
2023-02-23T07:06:54.268Z,4.04
2023-02-23T07:09:21.401Z,4.09
2023-02-23T07:11:48.450Z,4.13
2023-02-23T07:14:26.038Z,4.15
2023-02-23T07:16:54.556Z,4.16
2023-02-23T07:19:22.268Z,4.19
2023-02-23T07:21:49.334Z,4.21
2023-02-23T07:24:16.456Z,4.22
2023-02-23T07:26:47.140Z,4.26
2023-02-23T07:29:14.244Z,4.28
2023-02-23T07:31:41.755Z,4.30
2023-02-23T07:34:09.449Z,4.32
2023-02-23T07:36:36.882Z,4.32
2023-02-23T07:39:04.843Z,4.35
2023-02-23T07:41:32.405Z,4.37
2023-02-23T07:43:59.798Z,4.38
2023-02-23T07:46:26.971Z,4.42
2023-02-23T07:48:54.190Z,4.44
2023-02-23T07:51:21.551Z,4.48
2023-02-23T07:53:49.405Z,4.52
2023-02-23T07:56:16.551Z,4.54
2023-02-23T07:58:44.650Z,4.54
2023-02-23T08:01:12.708Z,4.57
2023-02-23T08:03:39.889Z,4.59
2023-02-23T08:06:07.162Z,4.62
2023-02-23T08:08:35.311Z,4.61
2023-02-23T08:11:04.074Z,4.60
2023-02-23T08:13:31.826Z,4.61
2023-02-23T08:15:59.366Z,4.61
2023-02-23T08:18:27.703Z,4.64
2023-02-23T08:21:01.637Z,4.67
2023-02-23T08:23:33.581Z,4.69
2023-02-23T08:26:01.897Z,4.66
2023-02-23T08:28:30.156Z,4.70
2023-02-23T08:30:59.272Z,4.73
2023-02-23T08:33:26.761Z,4.73
2023-02-23T08:35:54.089Z,4.77
2023-02-23T08:38:21.862Z,4.80
2023-02-23T08:40:48.994Z,4.81
2023-02-23T08:43:16.285Z,4.86
2023-02-23T08:45:43.514Z,4.88
2023-02-23T08:48:10.689Z,4.88
2023-02-23T08:50:37.809Z,4.88
2023-02-23T08:53:05.358Z,4.88
2023-02-23T08:55:35.557Z,4.94
2023-02-23T08:58:02.726Z,4.98
2023-02-23T09:00:31.381Z,5.02
2023-02-23T09:02:58.478Z,5.06
2023-02-23T09:05:25.691Z,5.05
2023-02-23T09:07:52.829Z,5.09
2023-02-23T09:10:20.295Z,5.15
2023-02-23T09:12:47.423Z,5.20
2023-02-23T09:15:14.668Z,5.22
2023-02-23T09:17:44.886Z,5.20
2023-02-23T09:20:13.441Z,5.23
2023-02-23T09:22:48.638Z,5.30
2023-02-23T09:25:19.021Z,5.36
2023-02-23T09:27:46.539Z,5.42
2023-02-23T09:30:17.582Z,5.45
2023-02-23T09:32:45.583Z,5.49
2023-02-23T09:35:14.261Z,5.55
2023-02-23T09:37:41.361Z,5.62
2023-02-23T09:40:10.487Z,5.64
2023-02-23T09:42:42.679Z,5.67
2023-02-23T09:45:18.881Z,5.76
2023-02-23T09:48:04.294Z,5.84
2023-02-23T09:50:32.462Z,5.84
2023-02-23T09:53:07.697Z,5.92
2023-02-23T09:55:35.376Z,5.97
2023-02-23T09:58:08.010Z,5.98
2023-02-23T10:00:41.460Z,6.07
2023-02-23T10:03:17.128Z,6.17
2023-02-23T10:05:46.114Z,6.25
2023-02-23T10:08:21.669Z,6.33
2023-02-23T10:11:02.185Z,6.44
2023-02-23T10:13:45.051Z,6.54
2023-02-23T10:16:22.735Z,6.68
2023-02-23T10:19:00.451Z,6.82
2023-02-23T10:21:38.674Z,6.88
2023-02-23T10:24:11.549Z,6.93
2023-02-23T10:26:46.208Z,7.08
2023-02-23T10:29:37.663Z,7.23
2023-02-23T10:32:24.388Z,7.29
2023-02-23T10:34:54.293Z,7.40
2023-02-23T10:37:21.536Z,7.52
2023-02-23T10:39:51.567Z,7.63
2023-02-23T10:42:30.049Z,7.77
2023-02-23T10:44:58.771Z,7.83
2023-02-23T10:47:28.725Z,7.86
2023-02-23T10:49:57.732Z,7.93
2023-02-23T10:52:32.515Z,7.99
2023-02-23T10:55:00.484Z,8.20
2023-02-23T10:57:30.574Z,8.36
2023-02-23T11:00:13.445Z,8.50
2023-02-23T11:02:41.698Z,8.55
2023-02-23T11:05:34.500Z,8.60
2023-02-23T11:08:19.041Z,8.66
2023-02-23T11:11:15.114Z,8.83
2023-02-23T11:13:47.479Z,8.93
2023-02-23T11:16:17.113Z,9.02
2023-02-23T11:19:04.780Z,9.21
2023-02-23T11:21:38.380Z,9.34
2023-02-23T11:24:22.667Z,9.33
2023-02-23T11:26:52.544Z,9.30
2023-02-23T11:29:19.568Z,9.41
2023-02-23T11:31:57.585Z,9.60
2023-02-23T11:34:33.282Z,9.80
2023-02-23T11:37:02.803Z,10.02
2023-02-23T11:39:29.860Z,10.22
2023-02-23T11:42:15.034Z,10.32
2023-02-23T11:44:42.321Z,10.43
2023-02-23T11:47:21.546Z,10.36
2023-02-23T11:49:49.635Z,10.45
2023-02-23T11:52:20.034Z,10.56
2023-02-23T11:54:58.785Z,10.59
2023-02-23T11:57:30.406Z,10.76
2023-02-23T12:00:00.371Z,10.81
2023-02-23T12:02:29.573Z,10.93
2023-02-23T12:05:05.114Z,11.06
2023-02-23T12:07:41.481Z,11.25
2023-02-23T12:10:23.875Z,11.52
2023-02-23T12:13:00.422Z,11.75
2023-02-23T12:15:48.493Z,11.94
2023-02-23T12:18:22.966Z,12.11
2023-02-23T12:20:54.169Z,12.13
2023-02-23T12:23:30.244Z,12.22
2023-02-23T12:26:01.675Z,12.42
2023-02-23T12:28:36.655Z,12.39
2023-02-23T12:31:28.300Z,12.27
2023-02-23T12:34:00.550Z,12.20
2023-02-23T12:36:40.393Z,12.19
2023-02-23T12:39:30.334Z,12.34
2023-02-23T12:41:57.533Z,12.49
2023-02-23T12:44:35.345Z,12.50
2023-02-23T12:47:09.460Z,12.42
2023-02-23T12:49:44.489Z,12.54
2023-02-23T12:52:17.382Z,12.50
2023-02-23T12:54:46.759Z,12.38
2023-02-23T12:57:32.342Z,12.33
2023-02-23T13:00:23.701Z,12.30
2023-02-23T13:03:09.862Z,12.44
2023-02-23T13:05:57.670Z,12.45
2023-02-23T13:08:42.190Z,12.52
2023-02-23T13:11:23.342Z,12.56
2023-02-23T13:14:01.544Z,12.39
2023-02-23T13:16:35.923Z,12.40
2023-02-23T13:19:15.120Z,12.37
2023-02-23T13:21:50.219Z,12.25
2023-02-23T13:24:19.684Z,12.15
2023-02-23T13:26:55.721Z,12.04
2023-02-23T13:29:39.729Z,11.95
2023-02-23T13:32:13.940Z,11.98
2023-02-23T13:34:54.516Z,11.97
2023-02-23T13:37:26.337Z,11.96
2023-02-23T13:40:19.894Z,11.92
2023-02-23T13:43:17.739Z,11.82
2023-02-23T13:45:53.553Z,11.73
2023-02-23T13:48:32.367Z,11.81
2023-02-23T13:51:18.291Z,11.65
2023-02-23T13:53:57.747Z,11.49
2023-02-23T13:56:26.839Z,11.20
2023-02-23T13:59:09.429Z,11.03
2023-02-23T14:01:38.896Z,10.88
2023-02-23T14:04:13.173Z,10.74
2023-02-23T14:06:41.370Z,10.72
2023-02-23T14:09:12.000Z,10.73
2023-02-23T14:11:44.124Z,10.68
2023-02-23T14:14:34.139Z,10.52
2023-02-23T14:17:16.258Z,10.60
2023-02-23T14:19:44.568Z,10.49
2023-02-23T14:22:21.904Z,10.49
2023-02-23T14:25:26.459Z,10.47
2023-02-23T14:28:01.840Z,10.36
2023-02-23T14:30:29.668Z,10.31
2023-02-23T14:33:21.269Z,10.26
2023-02-23T14:35:48.714Z,10.15
2023-02-23T14:38:47.146Z,10.20
2023-02-23T14:41:15.090Z,10.11
2023-02-23T14:43:44.432Z,10.05
2023-02-23T14:46:16.944Z,9.98
2023-02-23T14:48:46.565Z,9.98
2023-02-23T14:51:20.683Z,9.94
2023-02-23T14:53:47.830Z,9.89
2023-02-23T14:56:28.089Z,9.98
2023-02-23T14:58:59.829Z,9.93
2023-02-23T15:01:38.345Z,9.85
2023-02-23T15:04:14.022Z,9.84
2023-02-23T15:06:42.455Z,9.86
2023-02-23T15:09:16.726Z,9.83
2023-02-23T15:11:46.233Z,9.85
2023-02-23T15:14:27.536Z,9.86
2023-02-23T15:16:55.995Z,9.93
2023-02-23T15:19:25.659Z,9.91
2023-02-23T15:21:54.367Z,9.73
2023-02-23T15:24:25.769Z,9.66
2023-02-23T15:26:54.032Z,9.66
2023-02-23T15:29:26.493Z,9.63
2023-02-23T15:31:55.490Z,9.63
2023-02-23T15:34:25.282Z,9.60
2023-02-23T15:36:59.809Z,9.59
2023-02-23T15:39:40.960Z,9.54
2023-02-23T15:42:11.777Z,9.49
2023-02-23T15:44:44.931Z,9.49
2023-02-23T15:47:20.941Z,9.46
2023-02-23T15:49:47.932Z,9.44
2023-02-23T15:52:20.992Z,9.46
2023-02-23T15:54:51.923Z,9.45
2023-02-23T15:57:29.592Z,9.49
2023-02-23T16:00:02.299Z,9.43
2023-02-23T16:02:29.844Z,9.34
2023-02-23T16:04:57.601Z,9.37
2023-02-23T16:07:26.696Z,9.32
2023-02-23T16:09:56.164Z,9.32
2023-02-23T16:12:32.538Z,9.28
2023-02-23T16:15:23.896Z,9.29
2023-02-23T16:17:58.957Z,9.26
2023-02-23T16:20:26.010Z,9.21
2023-02-23T16:22:54.705Z,9.19
2023-02-23T16:25:25.746Z,9.15
2023-02-23T16:27:59.529Z,9.15
2023-02-23T16:30:32.629Z,9.19
2023-02-23T16:33:30.069Z,9.19
2023-02-23T16:36:16.358Z,9.16
2023-02-23T16:38:52.791Z,9.16
2023-02-23T16:41:21.988Z,9.15
2023-02-23T16:43:50.094Z,9.17
2023-02-23T16:46:18.103Z,9.08
2023-02-23T16:48:45.474Z,9.08
2023-02-23T16:51:18.051Z,9.03
2023-02-23T16:53:45.871Z,9.03
2023-02-23T16:56:15.420Z,8.99
2023-02-23T16:58:45.866Z,8.94
2023-02-23T17:01:14.363Z,8.95
2023-02-23T17:03:52.413Z,8.95
2023-02-23T17:06:21.781Z,8.88
2023-02-23T17:08:57.545Z,8.84
2023-02-23T17:11:26.071Z,8.82
2023-02-23T17:13:53.264Z,8.79
2023-02-23T17:16:20.887Z,8.78
2023-02-23T17:18:48.862Z,8.79
2023-02-23T17:21:22.835Z,8.82
2023-02-23T17:23:51.061Z,8.84
2023-02-23T17:26:20.679Z,8.80
2023-02-23T17:28:47.906Z,8.75
2023-02-23T17:31:16.458Z,8.72
2023-02-23T17:33:44.626Z,8.76
2023-02-23T17:36:13.830Z,8.82
2023-02-23T17:38:44.476Z,8.76
2023-02-23T17:41:19.646Z,8.70
2023-02-23T17:43:47.020Z,8.77
2023-02-23T17:46:14.268Z,8.73
2023-02-23T17:48:44.577Z,8.69
2023-02-23T17:51:13.085Z,8.71
2023-02-23T17:53:40.526Z,8.70
2023-02-23T17:56:07.934Z,8.73
2023-02-23T17:58:35.950Z,8.73
2023-02-23T18:01:04.888Z,8.67
2023-02-23T18:03:33.548Z,8.67
2023-02-23T18:06:02.415Z,8.65
2023-02-23T18:08:29.756Z,8.61
2023-02-23T18:10:57.410Z,8.62
2023-02-23T18:13:25.467Z,8.62
2023-02-23T18:16:05.868Z,8.60
2023-02-23T18:18:33.155Z,8.63
2023-02-23T18:21:00.748Z,8.61
2023-02-23T18:23:32.477Z,8.56
2023-02-23T18:26:17.077Z,8.57
2023-02-23T18:28:45.634Z,8.57
2023-02-23T18:31:21.409Z,8.53
2023-02-23T18:33:56.290Z,8.54
2023-02-23T18:36:28.262Z,8.51
2023-02-23T18:38:57.196Z,8.48
2023-02-23T18:41:30.506Z,8.50
2023-02-23T18:43:58.637Z,8.50
2023-02-23T18:46:26.101Z,8.50
2023-02-23T18:48:54.499Z,8.47
2023-02-23T18:51:22.838Z,8.46
2023-02-23T18:53:50.521Z,8.45
2023-02-23T18:56:22.887Z,8.45
2023-02-23T18:58:51.494Z,8.40
2023-02-23T19:01:21.930Z,8.37
2023-02-23T19:03:50.657Z,8.34
2023-02-23T19:06:19.444Z,8.34
2023-02-23T19:08:57.233Z,8.36
2023-02-23T19:11:32.468Z,8.38
2023-02-23T19:14:04.266Z,8.39
2023-02-23T19:16:33.054Z,8.39
2023-02-23T19:19:01.243Z,8.38
2023-02-23T19:21:28.557Z,8.33
2023-02-23T19:23:59.442Z,8.31
2023-02-23T19:26:27.363Z,8.27
2023-02-23T19:28:54.671Z,8.25
2023-02-23T19:31:24.176Z,8.25
2023-02-23T19:33:53.608Z,8.20
2023-02-23T19:36:22.708Z,8.22
2023-02-23T19:38:49.972Z,8.20
2023-02-23T19:41:20.774Z,8.18
2023-02-23T19:43:48.107Z,8.20
2023-02-23T19:46:17.136Z,8.19
2023-02-23T19:48:51.729Z,8.23
2023-02-23T19:51:19.359Z,8.21
2023-02-23T19:53:46.703Z,8.21
2023-02-23T19:56:16.501Z,8.17
2023-02-23T19:58:46.611Z,8.14
2023-02-23T20:01:19.986Z,8.13
2023-02-23T20:04:00.580Z,8.12
2023-02-23T20:06:32.092Z,8.06
2023-02-23T20:09:01.549Z,8.03
2023-02-23T20:11:32.469Z,8.01
2023-02-23T20:14:00.431Z,7.88
2023-02-23T20:16:29.491Z,7.84
2023-02-23T20:18:57.722Z,7.76
2023-02-23T20:21:26.982Z,7.64
2023-02-23T20:23:55.384Z,7.55
2023-02-23T20:26:28.981Z,7.47
2023-02-23T20:28:57.364Z,7.34
2023-02-23T20:31:33.607Z,7.31
2023-02-23T20:34:07.065Z,7.30
2023-02-23T20:36:34.625Z,7.22
2023-02-23T20:39:12.524Z,7.18
2023-02-23T20:41:43.850Z,7.13
2023-02-23T20:44:15.767Z,7.09
2023-02-23T20:46:44.609Z,7.12
2023-02-23T20:49:13.349Z,7.17
2023-02-23T20:51:44.334Z,7.18
2023-02-23T20:54:14.286Z,7.18
2023-02-23T20:56:42.296Z,7.13
2023-02-23T20:59:13.883Z,7.07
2023-02-23T21:01:45.861Z,7.04
2023-02-23T21:04:15.203Z,6.95
2023-02-23T21:06:45.672Z,6.98
2023-02-23T21:09:17.039Z,6.95
2023-02-23T21:11:45.150Z,6.99
2023-02-23T21:14:12.533Z,6.98
2023-02-23T21:16:45.128Z,6.91
2023-02-23T21:19:14.023Z,6.91
2023-02-23T21:21:48.210Z,6.89
2023-02-23T21:24:17.372Z,6.88
2023-02-23T21:26:44.767Z,6.84
2023-02-23T21:29:14.631Z,6.85
2023-02-23T21:31:46.212Z,6.87
2023-02-23T21:34:15.385Z,6.83
2023-02-23T21:36:42.673Z,6.76
2023-02-23T21:39:10.256Z,6.72
2023-02-23T21:41:38.532Z,6.75
2023-02-23T21:44:07.317Z,6.80
2023-02-23T21:46:35.049Z,6.79
2023-02-23T21:49:07.261Z,6.73
2023-02-23T21:51:36.168Z,6.67
2023-02-23T21:54:03.852Z,6.64
2023-02-23T21:56:32.678Z,6.67
2023-02-23T21:58:59.906Z,6.65
2023-02-23T22:01:29.842Z,6.63
2023-02-23T22:03:57.610Z,6.62
2023-02-23T22:06:27.482Z,6.59
2023-02-23T22:08:55.016Z,6.60
2023-02-23T22:11:26.818Z,6.59
2023-02-23T22:16:52.942Z,6.47
2023-02-23T22:19:20.331Z,6.48
2023-02-23T22:21:50.509Z,6.48
2023-02-23T22:24:17.847Z,6.45
2023-02-23T22:26:55.839Z,6.45
2023-02-23T22:29:25.383Z,6.49
2023-02-23T22:31:52.816Z,6.49
2023-02-23T22:34:20.124Z,6.46
2023-02-23T22:36:48.427Z,6.46
2023-02-23T22:39:18.298Z,6.48
2023-02-23T22:41:46.637Z,6.43
2023-02-23T22:44:20.007Z,6.34
2023-02-23T22:46:52.158Z,6.38
2023-02-23T22:49:20.492Z,6.37
2023-02-23T22:51:47.795Z,6.40
2023-02-23T22:54:15.445Z,6.35
2023-02-23T22:56:42.736Z,6.28
2023-02-23T22:59:10.915Z,6.28
2023-02-23T23:01:39.164Z,6.25
2023-02-23T23:04:10.356Z,6.26
2023-02-23T23:06:39.954Z,6.23
2023-02-23T23:09:16.371Z,6.26
2023-02-23T23:11:44.343Z,6.25
2023-02-23T23:14:14.267Z,6.30
2023-02-23T23:20:00.501Z,6.31
2023-02-23T23:22:28.772Z,6.29
2023-02-23T23:24:56.937Z,6.32
2023-02-23T23:27:24.750Z,6.48
2023-02-23T23:29:51.966Z,6.41
2023-02-23T23:32:19.331Z,6.37
2023-02-23T23:34:50.746Z,6.33
2023-02-23T23:37:18.882Z,6.31
2023-02-23T23:39:46.272Z,6.28
2023-02-23T23:42:13.468Z,6.29
2023-02-23T23:44:40.786Z,6.29
2023-02-23T23:47:07.949Z,6.30
2023-02-23T23:49:39.881Z,6.32
2023-02-23T23:52:07.162Z,6.28
2023-02-23T23:54:41.140Z,6.23
2023-02-23T23:57:09.422Z,6.21
2023-02-23T23:59:41.445Z,6.19
